Terminal Aerodrome Forecast
Issued by NWS Twin Cities, MN

Home | Current Version | Previous Version | Graphics & Text | Print | Product List | Glossary On
Versions: 1 2 3 4 5 6 7 8 9 10 11 12 13 14 15 16 17 18 19 20 21 22 23 24 25 26 27 28 29 30
889
FTUS43 KMPX 191726
TAFMSP
TAF
KMSP 191726Z 1918/2024 15008KT 5SM BR BKN006
      TEMPO 1918/1921 SCT006
     FM192100 15007KT 3SM BR OVC006
     FM200600 13004KT 2SM -DZ BR OVC003
     FM201200 11004KT 3SM -DZ BR OVC005=

USA.gov is the U.S. government's official web portal to all federal, state and local government web resources and services.